Liffré (35) - F

Date : 29/10/2012
Distance : 4,000 km

Place Nom Licence Catégorie Club Temps min/km CN à J-60 Points Différence Nouveau CN
1 DROIN Solène 17925 D16 4201RA 0:33:31 8'22 5692 8008 +2316 7630
2 BEAUVIR Maëlle 12709 D16 3502BR 0:35:43 8'55 5508 7515 +2007 6233
3 BOUSSER Etienne 1843 H65 5702LO 0:37:04 9'16 7120 7241 +121 7234
4 DAYON Pierre 15718 H60 4012AQ 0:44:33 11'08 5680 6025 +345 6074
5 ROULLEAUX Julie 11559 D16 9105IF 0:45:43 11'25 5089 5871 +782 5717
6 MASCARELL Henri 8928 H60 6911RA 0:45:51 11'27 5724 5854 +130 5835
7 PREVOST Pascale 922 D55 7707IF 0:47:07 11'46 5587 5696 +109 5660
8 BODY Mathilde 10184 D16 7305RA 0:47:22 11'50 5805 5666 -139 6872
9 PETIT Guyonne 4372 D55 7808IF 0:48:49 12'12 4595 5498 +903 4886
10 DELENNE Camilla 13800 D16 1307PR 0:49:52 12'28 4640 5382 +742 5271
11 DARTHIAIL Jean-Paul 3254 H60 3308AQ 0:51:11 12'47 5897 5244 -653 5897
12 DECHAVANNE Jean-Francois 3461 H60 6911RA 0:51:49 12'57 6137 5180 -957 6137
13 MARTIN Pascale 23568 D50 7512IF 0:53:50 13'27 4802 4986 +184 4858
14 VERNOTTE Louise 23552 D16 1905LI 0:54:40 13'40 3043 4910 +1867 4039
15 RIVOLLIER Isaline 22451 D16 4201RA 0:55:38 13'54 4550 4824 +274 5051
16 LOUAT Aime 12192 H60 8903BO 0:55:49 13'57 4458 4809 +351 4472
17 BASSET Fiona 23384 D16 6911RA 0:55:58 13'59 5135 4796 -339 5669
18 BESTEL Sandra 10758 D16 9105IF 0:56:18 14'04 4077 4767 +690 4481
19 MARCHESIN Sylvie 1487 D50 5702LO 0:56:33 14'08 5311 4746 -565 5311
20 PETER-JAN Lucile 19276 D16 3705CE 0:57:49 14'27 5024 4642 -382 5024
21 DUQUENNE Audrey 23885 D16 5907NO 0:58:24 14'36 4168 4596 +428 4624
22 BLUM Virginie 12646 D50 5116CA 0:58:35 14'38 4300 4581 +281 4523
23 BONNET Christine 2400 D55 5402LO 0:58:54 14'43 4990 4557 -433 4990
24 CRETE Juliette 18829 D16 6008PI 1:00:52 15'13 3183 4410 +1227 4095
25 BERGER-CAPBERN Valérie 6068 D50 3105MP 1:03:11 15'47 5344 4248 -1096 5486
26 ANGLADE Lucile 21188 D16 5604BR 1:03:18 15'49 4379 4240 -139 4474
27 VUILLET Christian 2712 H60 2105BO 1:03:55 15'58 4768 4199 -569 4768
28 OUDIN Bernard 7573 H60 6804AL 1:04:42 16'10 5265 4148 -1117 5485
29 BULLIER Alisson 23427 D16 0207PI 1:06:11 16'32 2678 4055 +1377 3458
30 CORDEIRO MENDES Myriam 9235 D50 6008PI 1:06:39 16'39 3720 4027 +307 3882
31 REYNAUD Renée 8868 D55 6307AU 1:07:06 16'46 4147 4000 -147 4443
32 VOGT Claude 2558 H65 6709AL 1:09:28 17'22 4498 3864 -634 4831
33 TESSIER Daniel 2006 H60 7709IF 1:09:54 17'28 4781 3840 -941 4781
34 TOUZAIN ROULLEAUX Isabelle 8920 D50 9105IF 1:10:37 17'39 4141 3801 -340 4239
35 BOULANGER Isabelle 10639 D55 5907NO 1:11:01 17'45 3366 3779 +413 3516
36 MARTINET JANNIN Léa 26512 D16 2517FC 1:11:55 17'58 3732 3513
37 MASSON Michel 4317 H60 2105BO 1:12:49 18'12 4126 3686 -440 4053
38 MOUSSU Sarah 22301 D16 3318AQ 1:14:28 18'37 4205 3604 -601 4494
39 KORCHAK Lena 13637 D50 6806AL 1:16:03 19'00 5093 3529 -1564 5201
40 LEFRANÇOIS Gérard 1938 H65 9502IF 1:16:13 19'03 3304 3521 +217 4014
41 ROUX Marie Françoise 25236 D50 4201RA 1:16:36 19'09 4054 3504 -550 4281
42 LECUYER Manon 22549 D16 5907NO 1:17:55 19'28 2960 3445 +485 3783
43 GERBEAUX Jean-paul 23596 H60 6205NO 1:19:00 19'45 3747 3397 -350 3824
44 DUPOIRIEUX Sophie 10496 D50 8807LO 1:20:21 20'05 4124 3340 -784 4124
45 MARTIN Gilbert 5141 H60 9404IF 1:20:23 20'05 4874 3339 -1535 4988
46 TERRILLON Marie-Therese 15717 D50 4012AQ 1:25:24 21'21 4533 3143 -1390 4665
47 THIEBAUT Evelyne 16129 D55 5702LO 1:26:24 21'36 3504 3106 -398 3316
48 HUMBERTCLAUDE J-Paul 16205 H65 5909NO 1:27:56 21'59 4213 3052 -1161 4336
49 ENDRESS Pauline 26600 D21 3502BR 1:30:40 22'40 2960 2842
50 ESNAULT Nancy 9364 D55 5402LO 1:32:04 23'01 3899 2915 -984 3922
51 GREVET Claudie 15296 D50 6806AL 1:33:59 23'29 3046 2856 -190 3157
52 FOLTZER Cécile 26907 D16 2517FC 1:34:09 23'32 2851 2737
53 FEUGEAS Clothilde 22198 D16 1905LI 1:34:36 23'39 2388 2837 +449 2855
54 CAZEMAYOR Tess 22291 D16 3318AQ 1:34:54 23'43 3151 2828 -323 3416
55 DIEUDONNE Roland 1381 H65 7808IF 1:36:21 24'05 3706 2786 -920 3706
56 EUDIER Agnès 13233 D50 2704NM 1:37:26 24'21 4183 2755 -1428 4217
57 BOUCHE Sylvie 7520 D50 9105IF 1:39:37 24'54 3465 2694 -771 3596
58 BAUDOIN Jean-Paul 16352 H60 0615AZ 1:40:04 25'01 4403 2682 -1721 4434
59 SCHELCHER Ginette 20409 D50 6806AL 1:48:05 27'01 3987 2483 -1504 4017
60 TESSIER Ariane 2004 D55 7709IF 1:50:01 27'30 2816 2440 -376 2823
61 DUFOUR Marie 26623 D16 7407RA 1:50:21 27'35 2432 2246
62 COURNUT Alain 626 H65 3308AQ 1:52:05 28'01 4671 2395 -2276 4686
63 DELVA Lou 26620 D16 7407RA 1:54:20 28'35 2347 2253
64 CANCE Julie 25241 D16 1905LI 2:24:06 36'01 1393 1863 +470 2195
65 BERION Marie-Josephe 23056 D55 2508FC 2:33:28 38'22 2167 1749 -418 2463
PINZELLI Tamara 23551 D16 1905LI abandon None 3364 0 3621
DUDOUT Malaurine 24516 D16 2704NM pm None 2523 0 3913
LUTHRINGER Coline 10091 D16 8809LO pm None 4894 0 4894
FOL Loreline 16393 D16 3105MP pm None 4599 0 4949
BUCAMP Noémie 25200 D16 6008PI pm None 2088 0 2925
GIBIAT Danielle 3547 D55 8405PR pm None 3409 0 3685
DESCOURVIERES Perrine 25550 D16 7407RA pm None 2150 0 2317